Wetterdaten: Woche 27.03.17 - 02.04.17 (KW13)
Datum Zeit Temp. A. Feuchte A. Luftdruck Regen Wind Richtung Taupunkt Windchill Windben
27.03.2017 00:00 1,6 C 88 % 1023,2 hPa 0,0 l/m 0,0 km/h (0 Bft) S-SO -0,2 C 1,6 C 0,0 km/h (0 Bft)
27.03.2017 01:00 0,5 C 90 % 1023,1 hPa 0,0 l/m 0,0 km/h (0 Bft) S-SO -0,9 C 0,5 C 0,0 km/h (0 Bft)
27.03.2017 02:00 -0,3 C 91 % 1022,7 hPa 0,0 l/m 0,1 km/h (0 Bft) S-SO -1,6 C -0,3 C 0,4 km/h (0 Bft)
27.03.2017 03:00 -1,1 C 92 % 1022,3 hPa 0,0 l/m 0,0 km/h (0 Bft) S-SO -2,2 C -1,1 C 0,3 km/h (0 Bft)
27.03.2017 04:00 -1,8 C 93 % 1022,3 hPa 0,0 l/m 0,1 km/h (0 Bft) S-SO -2,8 C -1,8 C 0,5 km/h (0 Bft)
27.03.2017 05:00 -2,5 C 94 % 1022,4 hPa 0,0 l/m 0,0 km/h (0 Bft) S-SO -3,4 C -2,5 C 0,3 km/h (0 Bft)
27.03.2017 06:00 -2,8 C 94 % 1022,4 hPa 0,0 l/m 0,0 km/h (0 Bft) S-SO -3,7 C -2,8 C 0,5 km/h (0 Bft)
27.03.2017 07:00 -3,1 C 94 % 1022,4 hPa 0,0 l/m 0,2 km/h (0 Bft) S-SO -4,0 C -3,1 C 1,2 km/h (1 Bft)
27.03.2017 08:00 -0,8 C 91 % 1022,9 hPa 0,0 l/m 0,2 km/h (0 Bft) S-SO -2,2 C -0,8 C 1,3 km/h (1 Bft)
27.03.2017 09:00 3,9 C 76 % 1023,1 hPa 0,0 l/m 1,1 km/h (0 Bft) S-SW -0,1 C 3,9 C 3,2 km/h (1 Bft)
27.03.2017 10:00 8,2 C 52 % 1022,9 hPa 0,0 l/m 2,2 km/h (1 Bft) W-NW -1,0 C 8,2 C 5,3 km/h (1 Bft)
27.03.2017 11:00 11,0 C 47 % 1022,8 hPa 0,0 l/m 3,6 km/h (1 Bft) W-NW 0,1 C 11,0 C 8,5 km/h (2 Bft)
27.03.2017 12:00 12,8 C 44 % 1022,9 hPa 0,0 l/m 3,7 km/h (1 Bft) W-NW 0,8 C 12,8 C 7,3 km/h (2 Bft)
27.03.2017 13:00 14,5 C 40 % 1022,6 hPa 0,0 l/m 3,7 km/h (1 Bft) NW 0,9 C 14,4 C 7,0 km/h (2 Bft)
27.03.2017 14:00 16,0 C 38 % 1022,4 hPa 0,0 l/m 3,8 km/h (1 Bft) W-NW 1,5 C 16,0 C 6,5 km/h (2 Bft)
27.03.2017 15:00 16,7 C 35 % 1022,0 hPa 0,0 l/m 3,9 km/h (1 Bft) NW 1,2 C 16,7 C 7,0 km/h (2 Bft)
27.03.2017 16:00 17,5 C 33 % 1021,6 hPa 0,0 l/m 3,9 km/h (1 Bft) NW 1,1 C 17,5 C 6,7 km/h (2 Bft)
27.03.2017 17:00 17,5 C 33 % 1021,4 hPa 0,0 l/m 2,6 km/h (1 Bft) W-NW 0,9 C 17,5 C 4,9 km/h (1 Bft)
27.03.2017 18:00 17,2 C 33 % 1021,3 hPa 0,0 l/m 1,4 km/h (1 Bft) NW 0,9 C 17,2 C 3,9 km/h (1 Bft)
27.03.2017 19:00 13,7 C 49 % 1021,4 hPa 0,0 l/m 0,2 km/h (0 Bft) SW 3,1 C 13,7 C 0,9 km/h (0 Bft)
27.03.2017 20:00 9,0 C 66 % 1021,9 hPa 0,0 l/m 0,0 km/h (0 Bft) SW 2,9 C 9,0 C 0,1 km/h (0 Bft)
27.03.2017 21:00 5,8 C 77 % 1022,4 hPa 0,0 l/m 0,1 km/h (0 Bft) SW 2,0 C 5,8 C 0,4 km/h (0 Bft)
27.03.2017 22:00 4,3 C 81 % 1022,9 hPa 0,0 l/m 0,3 km/h (0 Bft) N-NO 1,2 C 4,3 C 1,7 km/h (1 Bft)
27.03.2017 23:00 3,0 C 84 % 1023,0 hPa 0,0 l/m 0,1 km/h (0 Bft) N-NO 0,5 C 3,0 C 0,9 km/h (0 Bft)
28.03.2017 00:00 2,2 C 85 % 1023,2 hPa 0,0 l/m 0,0 km/h (0 Bft) N-NO 0,0 C 2,2 C 0,3 km/h (0 Bft)
28.03.2017 01:00 1,3 C 88 % 1023,3 hPa 0,0 l/m 0,0 km/h (0 Bft) N-NO -0,4 C 1,3 C 0,0 km/h (0 Bft)
28.03.2017 02:00 0,8 C 90 % 1023,4 hPa 0,0 l/m 0,0 km/h (0 Bft) N-NO -0,7 C 0,8 C 0,0 km/h (0 Bft)
28.03.2017 03:00 0,4 C 91 % 1023,3 hPa 0,0 l/m 0,0 km/h (0 Bft) N-NO -0,9 C 0,4 C 0,0 km/h (0 Bft)
28.03.2017 04:00 0,0 C 92 % 1023,1 hPa 0,0 l/m 0,0 km/h (0 Bft) N-NO -1,0 C 0,0 C 0,4 km/h (0 Bft)
28.03.2017 05:00 -0,3 C 94 % 1023,2 hPa 0,0 l/m 0,0 km/h (0 Bft) N-NO -1,2 C -0,3 C 0,0 km/h (0 Bft)
28.03.2017 06:00 -0,4 C 94 % 1023,4 hPa 0,0 l/m 0,0 km/h (0 Bft) N-NO -1,2 C -0,4 C 0,0 km/h (0 Bft)
28.03.2017 07:00 -0,1 C 95 % 1023,8 hPa 0,0 l/m 0,1 km/h (0 Bft) N-NO -0,8 C -0,1 C 0,5 km/h (0 Bft)
28.03.2017 08:00 2,3 C 92 % 1024,0 hPa 0,0 l/m 0,0 km/h (0 Bft) N-NO 1,1 C 2,3 C 0,5 km/h (0 Bft)
28.03.2017 09:00 7,8 C 77 % 1024,0 hPa 0,0 l/m 0,9 km/h (0 Bft) N-NO 4,1 C 7,8 C 2,4 km/h (1 Bft)
28.03.2017 10:00 13,1 C 61 % 1024,1 hPa 0,0 l/m 3,5 km/h (1 Bft) NO 5,6 C 13,1 C 8,3 km/h (2 Bft)
28.03.2017 11:00 15,9 C 48 % 1024,1 hPa 0,0 l/m 4,5 km/h (1 Bft) O-NO 4,9 C 15,9 C 10,4 km/h (2 Bft)
28.03.2017 12:00 16,8 C 44 % 1024,0 hPa 0,0 l/m 6,1 km/h (2 Bft) O-NO 4,5 C 16,7 C 12,4 km/h (2 Bft)
28.03.2017 13:00 18,1 C 41 % 1023,7 hPa 0,0 l/m 6,2 km/h (2 Bft) O-NO 4,7 C 18,0 C 15,7 km/h (3 Bft)
28.03.2017 14:00 18,9 C 38 % 1023,3 hPa 0,0 l/m 5,8 km/h (2 Bft) NO 4,2 C 18,8 C 14,1 km/h (3 Bft)
28.03.2017 15:00 19,7 C 37 % 1022,9 hPa 0,0 l/m 5,3 km/h (1 Bft) O-NO 4,4 C 19,7 C 13,4 km/h (3 Bft)
28.03.2017 16:00 18,8 C 39 % 1022,8 hPa 0,0 l/m 4,7 km/h (1 Bft) O 4,4 C 18,8 C 12,9 km/h (3 Bft)
28.03.2017 17:00 18,2 C 40 % 1022,8 hPa 0,0 l/m 3,7 km/h (1 Bft) O 4,5 C 18,2 C 8,7 km/h (2 Bft)
28.03.2017 18:00 18,0 C 41 % 1022,9 hPa 0,0 l/m 3,1 km/h (1 Bft) O-NO 4,6 C 18,0 C 7,2 km/h (2 Bft)
28.03.2017 19:00 15,1 C 53 % 1023,2 hPa 0,0 l/m 0,4 km/h (0 Bft) O-NO 5,4 C 15,1 C 1,9 km/h (1 Bft)
28.03.2017 20:00 10,7 C 71 % 1023,8 hPa 0,0 l/m 0,4 km/h (0 Bft) O-NO 5,6 C 10,7 C 2,0 km/h (1 Bft)
28.03.2017 21:00 9,2 C 81 % 1024,6 hPa 0,0 l/m 0,3 km/h (0 Bft) O-NO 6,0 C 9,2 C 1,6 km/h (1 Bft)
28.03.2017 22:00 8,1 C 89 % 1025,0 hPa 0,0 l/m 0,2 km/h (0 Bft) O-NO 6,4 C 8,1 C 1,1 km/h (0 Bft)
28.03.2017 23:00 7,7 C 88 % 1025,5 hPa 0,0 l/m 0,2 km/h (0 Bft) O-NO 5,8 C 7,7 C 0,8 km/h (0 Bft)
29.03.2017 00:00 6,5 C 89 % 1026,0 hPa 0,0 l/m 0,0 km/h (0 Bft) O-NO 4,9 C 6,5 C 0,7 km/h (0 Bft)
29.03.2017 01:00 5,7 C 91 % 1026,4 hPa 0,0 l/m 0,1 km/h (0 Bft) O-NO 4,3 C 5,7 C 0,7 km/h (0 Bft)
29.03.2017 02:00 5,0 C 92 % 1026,4 hPa 0,0 l/m 0,1 km/h (0 Bft) O-NO 3,8 C 5,0 C 0,7 km/h (0 Bft)
29.03.2017 03:00 4,7 C 93 % 1026,3 hPa 0,0 l/m 0,0 km/h (0 Bft) O-NO 3,7 C 4,7 C 0,5 km/h (0 Bft)
29.03.2017 04:00 5,0 C 94 % 1026,2 hPa 0,0 l/m 0,1 km/h (0 Bft) O-NO 4,1 C 5,0 C 1,1 km/h (0 Bft)
29.03.2017 05:00 4,5 C 94 % 1026,4 hPa 0,0 l/m 0,0 km/h (0 Bft) O-NO 3,7 C 4,5 C 0,3 km/h (0 Bft)
29.03.2017 06:00 4,2 C 95 % 1026,6 hPa 0,0 l/m 0,2 km/h (0 Bft) O-NO 3,5 C 4,2 C 0,9 km/h (0 Bft)
29.03.2017 07:00 4,0 C 95 % 1026,9 hPa 0,0 l/m 0,4 km/h (0 Bft) S-SO 3,3 C 4,0 C 2,1 km/h (1 Bft)
29.03.2017 08:00 6,0 C 90 % 1027,2 hPa 0,0 l/m 0,5 km/h (0 Bft) S-SO 4,5 C 6,0 C 1,7 km/h (1 Bft)
29.03.2017 09:00 10,0 C 80 % 1027,3 hPa 0,0 l/m 1,6 km/h (1 Bft) SW 6,7 C 10,0 C 3,7 km/h (1 Bft)
29.03.2017 10:00 12,5 C 71 % 1027,4 hPa 0,0 l/m 3,9 km/h (1 Bft) NO 7,3 C 12,5 C 8,8 km/h (2 Bft)
29.03.2017 11:00 14,1 C 62 % 1027,6 hPa 0,0 l/m 4,4 km/h (1 Bft) NO 6,8 C 14,1 C 11,0 km/h (2 Bft)
29.03.2017 12:00 15,4 C 53 % 1027,3 hPa 0,0 l/m 5,0 km/h (1 Bft) O-NO 5,8 C 15,3 C 11,2 km/h (2 Bft)
29.03.2017 13:00 16,5 C 47 % 1026,8 hPa 0,0 l/m 6,6 km/h (2 Bft) O-NO 5,0 C 16,2 C 15,7 km/h (3 Bft)
29.03.2017 14:00 17,2 C 43 % 1026,2 hPa 0,0 l/m 5,5 km/h (2 Bft) NO 4,6 C 17,1 C 14,5 km/h (3 Bft)
29.03.2017 15:00 17,8 C 42 % 1025,7 hPa 0,0 l/m 5,1 km/h (1 Bft) NO 4,6 C 17,8 C 13,3 km/h (3 Bft)
29.03.2017 16:00 18,1 C 40 % 1025,3 hPa 0,0 l/m 4,2 km/h (1 Bft) O-NO 4,2 C 18,1 C 11,4 km/h (2 Bft)
29.03.2017 17:00 17,6 C 43 % 1024,9 hPa 0,0 l/m 3,5 km/h (1 Bft) O-NO 4,8 C 17,6 C 8,1 km/h (2 Bft)
29.03.2017 18:00 17,1 C 44 % 1024,9 hPa 0,0 l/m 2,4 km/h (1 Bft) O-SO 4,9 C 17,1 C 5,9 km/h (2 Bft)
29.03.2017 19:00 14,2 C 58 % 1025,3 hPa 0,0 l/m 0,5 km/h (0 Bft) O-SO 6,0 C 14,2 C 2,3 km/h (1 Bft)
29.03.2017 20:00 10,2 C 73 % 1025,8 hPa 0,0 l/m 0,4 km/h (0 Bft) O-SO 5,6 C 10,2 C 1,9 km/h (1 Bft)
29.03.2017 21:00 7,8 C 80 % 1026,4 hPa 0,0 l/m 0,1 km/h (0 Bft) O-SO 4,5 C 7,8 C 1,2 km/h (1 Bft)
29.03.2017 22:00 6,0 C 85 % 1027,1 hPa 0,0 l/m 0,0 km/h (0 Bft) O-SO 3,6 C 6,0 C 0,1 km/h (0 Bft)
29.03.2017 23:00 4,9 C 88 % 1027,5 hPa 0,0 l/m 0,0 km/h (0 Bft) O-SO 3,1 C 4,9 C 0,0 km/h (0 Bft)
30.03.2017 00:00 4,2 C 90 % 1027,6 hPa 0,0 l/m 0,0 km/h (0 Bft) O-SO 2,8 C 4,2 C 0,1 km/h (0 Bft)
30.03.2017 01:00 3,6 C 92 % 1027,6 hPa 0,0 l/m 0,1 km/h (0 Bft) O-SO 2,4 C 3,6 C 0,8 km/h (0 Bft)
30.03.2017 02:00 3,5 C 93 % 1027,8 hPa 0,0 l/m 0,1 km/h (0 Bft) O-SO 2,4 C 3,5 C 1,2 km/h (1 Bft)
30.03.2017 03:00 2,9 C 93 % 1027,6 hPa 0,0 l/m 0,0 km/h (0 Bft) O-SO 1,8 C 2,9 C 0,0 km/h (0 Bft)
30.03.2017 04:00 2,5 C 94 % 1027,4 hPa 0,0 l/m 0,1 km/h (0 Bft) O-SO 1,6 C 2,5 C 0,3 km/h (0 Bft)
30.03.2017 05:00 2,1 C 95 % 1027,6 hPa 0,0 l/m 0,0 km/h (0 Bft) O-SO 1,3 C 2,1 C 0,0 km/h (0 Bft)
30.03.2017 06:00 1,8 C 94 % 1027,6 hPa 0,0 l/m 0,0 km/h (0 Bft) O-SO 1,0 C 1,8 C 0,4 km/h (0 Bft)
30.03.2017 07:00 1,4 C 95 % 1027,5 hPa 0,0 l/m 0,0 km/h (0 Bft) O-SO 0,7 C 1,4 C 0,4 km/h (0 Bft)
30.03.2017 08:00 3,1 C 95 % 1027,6 hPa 0,0 l/m 0,1 km/h (0 Bft) O-SO 2,3 C 3,1 C 1,2 km/h (1 Bft)
30.03.2017 09:00 7,8 C 83 % 1027,4 hPa 0,0 l/m 1,0 km/h (0 Bft) O-SO 5,1 C 7,8 C 2,8 km/h (1 Bft)
30.03.2017 10:00 12,3 C 70 % 1027,2 hPa 0,0 l/m 2,7 km/h (1 Bft) NW 7,0 C 12,3 C 6,0 km/h (2 Bft)
30.03.2017 11:00 14,4 C 62 % 1027,0 hPa 0,0 l/m 3,2 km/h (1 Bft) SW 7,3 C 14,4 C 8,4 km/h (2 Bft)
30.03.2017 12:00 15,9 C 57 % 1026,5 hPa 0,0 l/m 3,4 km/h (1 Bft) NO 7,3 C 15,9 C 7,2 km/h (2 Bft)
30.03.2017 13:00 17,2 C 50 % 1025,8 hPa 0,0 l/m 3,7 km/h (1 Bft) NO 6,7 C 17,2 C 8,6 km/h (2 Bft)
30.03.2017 14:00 18,5 C 46 % 1025,2 hPa 0,0 l/m 3,0 km/h (1 Bft) NW 6,6 C 18,5 C 8,2 km/h (2 Bft)
30.03.2017 15:00 19,2 C 44 % 1024,3 hPa 0,0 l/m 3,5 km/h (1 Bft) W-NW 6,6 C 19,2 C 8,6 km/h (2 Bft)
30.03.2017 16:00 19,6 C 42 % 1023,7 hPa 0,0 l/m 3,1 km/h (1 Bft) W-NW 6,5 C 19,6 C 6,7 km/h (2 Bft)
30.03.2017 17:00 19,9 C 42 % 1023,0 hPa 0,0 l/m 2,1 km/h (1 Bft) W-NW 6,7 C 19,9 C 4,4 km/h (1 Bft)
30.03.2017 18:00 19,6 C 44 % 1022,7 hPa 0,0 l/m 2,1 km/h (1 Bft) W 6,9 C 19,6 C 5,0 km/h (1 Bft)
30.03.2017 19:00 17,1 C 55 % 1022,6 hPa 0,0 l/m 0,3 km/h (0 Bft) S-SW 7,8 C 17,1 C 2,5 km/h (1 Bft)
30.03.2017 20:00 12,7 C 71 % 1022,8 hPa 0,0 l/m 0,0 km/h (0 Bft) S-SW 7,5 C 12,7 C 0,3 km/h (0 Bft)
30.03.2017 21:00 9,6 C 81 % 1023,0 hPa 0,0 l/m 0,0 km/h (0 Bft) S-SW 6,4 C 9,6 C 0,1 km/h (0 Bft)
30.03.2017 22:00 7,7 C 86 % 1022,9 hPa 0,0 l/m 0,2 km/h (0 Bft) S-SW 5,6 C 7,7 C 0,9 km/h (0 Bft)
30.03.2017 23:00 6,6 C 88 % 1022,8 hPa 0,0 l/m 0,0 km/h (0 Bft) S-SW 4,7 C 6,6 C 0,4 km/h (0 Bft)
31.03.2017 00:00 5,5 C 91 % 1022,7 hPa 0,0 l/m 0,0 km/h (0 Bft) S-SW 4,1 C 5,5 C 0,0 km/h (0 Bft)
31.03.2017 01:00 4,8 C 92 % 1022,2 hPa 0,0 l/m 0,1 km/h (0 Bft) S-SW 3,6 C 4,8 C 0,4 km/h (0 Bft)
31.03.2017 02:00 3,9 C 93 % 1021,7 hPa 0,0 l/m 0,0 km/h (0 Bft) S-SW 2,9 C 3,9 C 0,0 km/h (0 Bft)
31.03.2017 03:00 3,2 C 94 % 1021,1 hPa 0,0 l/m 0,0 km/h (0 Bft) S-SW 2,3 C 3,2 C 0,0 km/h (0 Bft)
31.03.2017 04:00 2,6 C 94 % 1020,6 hPa 0,0 l/m 0,0 km/h (0 Bft) S-SW 1,8 C 2,6 C 0,1 km/h (0 Bft)
31.03.2017 05:00 2,0 C 95 % 1020,2 hPa 0,0 l/m 0,0 km/h (0 Bft) S-SW 1,3 C 2,0 C 0,1 km/h (0 Bft)
31.03.2017 06:00 1,6 C 95 % 1020,0 hPa 0,0 l/m 0,0 km/h (0 Bft) S-SW 0,9 C 1,6 C 0,0 km/h (0 Bft)
31.03.2017 07:00 1,4 C 96 % 1020,0 hPa 0,0 l/m 0,0 km/h (0 Bft) S-SW 0,7 C 1,4 C 0,0 km/h (0 Bft)
31.03.2017 08:00 4,4 C 94 % 1019,7 hPa 0,0 l/m 0,3 km/h (0 Bft) S-SW 3,5 C 4,4 C 1,2 km/h (1 Bft)
31.03.2017 09:00 10,2 C 79 % 1019,4 hPa 0,0 l/m 1,1 km/h (0 Bft) S-SW 6,7 C 10,2 C 2,9 km/h (1 Bft)
31.03.2017 10:00 15,4 C 63 % 1019,0 hPa 0,0 l/m 2,3 km/h (1 Bft) W 8,5 C 15,4 C 5,6 km/h (2 Bft)
31.03.2017 11:00 18,6 C 47 % 1018,6 hPa 0,0 l/m 3,5 km/h (1 Bft) NO 6,8 C 18,6 C 7,7 km/h (2 Bft)
31.03.2017 12:00 19,9 C 44 % 1018,2 hPa 0,0 l/m 3,9 km/h (1 Bft) NO 7,2 C 19,9 C 7,8 km/h (2 Bft)
31.03.2017 13:00 21,6 C 40 % 1017,3 hPa 0,0 l/m 4,0 km/h (1 Bft) N-NO 7,3 C 21,6 C 10,1 km/h (2 Bft)
31.03.2017 14:00 21,9 C 33 % 1016,7 hPa 0,0 l/m 6,1 km/h (2 Bft) O 4,7 C 21,8 C 14,2 km/h (3 Bft)
31.03.2017 15:00 21,8 C 30 % 1016,3 hPa 0,0 l/m 6,9 km/h (2 Bft) O-NO 3,6 C 21,5 C 15,6 km/h (3 Bft)
31.03.2017 16:00 20,9 C 27 % 1015,8 hPa 0,0 l/m 6,3 km/h (2 Bft) O 0,9 C 20,7 C 15,3 km/h (3 Bft)
31.03.2017 17:00 19,9 C 29 % 1015,3 hPa 0,0 l/m 4,0 km/h (1 Bft) O-NO 1,4 C 19,9 C 9,3 km/h (2 Bft)
31.03.2017 18:00 19,6 C 31 % 1015,0 hPa 0,0 l/m 3,0 km/h (1 Bft) O-NO 1,9 C 19,6 C 6,5 km/h (2 Bft)
31.03.2017 19:00 16,8 C 39 % 1014,7 hPa 0,0 l/m 0,8 km/h (0 Bft) O-NO 2,6 C 16,8 C 3,2 km/h (1 Bft)
31.03.2017 20:00 13,4 C 50 % 1014,6 hPa 0,0 l/m 0,1 km/h (0 Bft) O 3,3 C 13,4 C 0,8 km/h (0 Bft)
31.03.2017 21:00 11,1 C 58 % 1014,6 hPa 0,0 l/m 0,1 km/h (0 Bft) O 3,2 C 11,1 C 1,1 km/h (0 Bft)
31.03.2017 22:00 9,9 C 61 % 1014,3 hPa 0,0 l/m 0,6 km/h (0 Bft) O 2,8 C 9,9 C 2,0 km/h (1 Bft)
31.03.2017 23:00 9,0 C 63 % 1014,2 hPa 0,0 l/m 0,5 km/h (0 Bft) S 2,4 C 9,0 C 1,6 km/h (1 Bft)
01.04.2017 00:00 7,6 C 70 % 1014,2 hPa 0,0 l/m 0,0 km/h (0 Bft) S 2,5 C 7,6 C 0,1 km/h (0 Bft)
01.04.2017 01:00 5,7 C 77 % 1013,9 hPa 0,0 l/m 0,0 km/h (0 Bft) S 2,0 C 5,7 C 0,0 km/h (0 Bft)
01.04.2017 02:00 4,7 C 81 % 1013,6 hPa 0,0 l/m 0,0 km/h (0 Bft) S 1,7 C 4,7 C 0,0 km/h (0 Bft)
01.04.2017 03:00 4,1 C 83 % 1013,1 hPa 0,0 l/m 0,0 km/h (0 Bft) S 1,5 C 4,1 C 0,0 km/h (0 Bft)
01.04.2017 04:00 3,8 C 85 % 1012,6 hPa 0,0 l/m 0,0 km/h (0 Bft) S 1,5 C 3,8 C 0,0 km/h (0 Bft)
01.04.2017 05:00 3,9 C 86 % 1012,1 hPa 0,0 l/m 0,0 km/h (0 Bft) S 1,7 C 3,9 C 0,0 km/h (0 Bft)
01.04.2017 06:00 3,8 C 87 % 1011,8 hPa 0,0 l/m 0,0 km/h (0 Bft) S 1,8 C 3,8 C 0,0 km/h (0 Bft)
01.04.2017 07:00 3,6 C 88 % 1011,5 hPa 0,0 l/m 0,0 km/h (0 Bft) S 1,8 C 3,6 C 0,0 km/h (0 Bft)
01.04.2017 08:00 4,5 C 88 % 1011,4 hPa 0,0 l/m 0,0 km/h (0 Bft) S 2,7 C 4,5 C 0,0 km/h (0 Bft)
01.04.2017 09:00 6,7 C 84 % 1011,3 hPa 0,0 l/m 0,0 km/h (0 Bft) S 4,1 C 6,7 C 0,0 km/h (0 Bft)
01.04.2017 10:00 9,9 C 74 % 1011,5 hPa 0,0 l/m 1,2 km/h (1 Bft) O 5,4 C 9,9 C 2,9 km/h (1 Bft)
01.04.2017 11:00 13,1 C 60 % 1011,5 hPa 0,0 l/m 3,7 km/h (1 Bft) N-NO 5,6 C 13,1 C 8,3 km/h (2 Bft)
01.04.2017 12:00 14,3 C 58 % 1011,3 hPa 0,0 l/m 3,7 km/h (1 Bft) NO 6,1 C 14,3 C 8,4 km/h (2 Bft)
01.04.2017 13:00 16,8 C 48 % 1010,7 hPa 0,0 l/m 4,2 km/h (1 Bft) O-NO 5,8 C 16,8 C 9,1 km/h (2 Bft)
01.04.2017 14:00 17,9 C 46 % 1010,4 hPa 0,0 l/m 5,1 km/h (1 Bft) O-NO 5,9 C 17,8 C 11,4 km/h (2 Bft)
01.04.2017 15:00 17,5 C 47 % 1010,1 hPa 0,0 l/m 4,8 km/h (1 Bft) O-NO 6,0 C 17,5 C 10,5 km/h (2 Bft)
01.04.2017 16:00 17,2 C 46 % 1010,0 hPa 0,0 l/m 4,5 km/h (1 Bft) O-NO 5,6 C 17,2 C 11,4 km/h (2 Bft)
01.04.2017 17:00 16,5 C 46 % 1010,3 hPa 0,0 l/m 4,3 km/h (1 Bft) O 4,9 C 16,5 C 10,3 km/h (2 Bft)
01.04.2017 18:00 15,4 C 52 % 1010,6 hPa 0,0 l/m 2,8 km/h (1 Bft) O-NO 5,5 C 15,4 C 7,4 km/h (2 Bft)
01.04.2017 19:00 12,0 C 65 % 1011,5 hPa 0,0 l/m 1,5 km/h (1 Bft) O-NO 5,7 C 12,0 C 6,0 km/h (2 Bft)
01.04.2017 20:00 10,6 C 66 % 1012,3 hPa 0,0 l/m 1,5 km/h (1 Bft) O 4,5 C 10,6 C 5,2 km/h (1 Bft)
01.04.2017 21:00 9,6 C 69 % 1012,9 hPa 0,0 l/m 0,5 km/h (0 Bft) S 4,2 C 9,6 C 2,5 km/h (1 Bft)
01.04.2017 22:00 9,5 C 70 % 1013,3 hPa 0,0 l/m 3,3 km/h (1 Bft) O-NO 4,2 C 9,5 C 9,1 km/h (2 Bft)
01.04.2017 23:00 8,6 C 72 % 1013,5 hPa 0,0 l/m 1,8 km/h (1 Bft) O 3,9 C 8,6 C 6,4 km/h (2 Bft)
02.04.2017 00:00 7,7 C 75 % 1013,9 hPa 0,0 l/m 0,1 km/h (0 Bft) O-NO 3,6 C 7,7 C 1,4 km/h (1 Bft)
02.04.2017 01:00 7,3 C 78 % 1014,2 hPa 0,0 l/m 0,2 km/h (0 Bft) O-NO 3,8 C 7,3 C 1,5 km/h (1 Bft)
02.04.2017 02:00 6,9 C 82 % 1014,4 hPa 0,0 l/m 0,1 km/h (0 Bft) O-NO 3,9 C 6,9 C 1,1 km/h (0 Bft)
02.04.2017 03:00 6,6 C 86 % 1014,7 hPa 0,0 l/m 0,0 km/h (0 Bft) O-NO 4,5 C 6,6 C 0,3 km/h (0 Bft)
02.04.2017 04:00 6,4 C 91 % 1014,8 hPa 0,3 l/m 0,2 km/h (0 Bft) O-NO 5,0 C 6,4 C 1,2 km/h (1 Bft)
02.04.2017 05:00 6,3 C 93 % 1015,1 hPa 0,5 l/m 0,1 km/h (0 Bft) O-NO 5,3 C 6,3 C 0,7 km/h (0 Bft)
02.04.2017 06:00 6,3 C 94 % 1015,3 hPa 0,0 l/m 0,3 km/h (0 Bft) O-NO 5,4 C 6,3 C 1,0 km/h (0 Bft)
02.04.2017 07:00 6,3 C 95 % 1016,0 hPa 0,0 l/m 0,2 km/h (0 Bft) O-NO 5,6 C 6,3 C 1,2 km/h (1 Bft)
02.04.2017 08:00 6,6 C 95 % 1016,4 hPa 0,0 l/m 0,2 km/h (0 Bft) O-NO 5,9 C 6,6 C 1,3 km/h (1 Bft)
02.04.2017 09:00 7,4 C 95 % 1016,9 hPa 0,0 l/m 0,3 km/h (0 Bft) O-NO 6,5 C 7,4 C 1,6 km/h (1 Bft)
02.04.2017 10:00 9,2 C 86 % 1017,3 hPa 0,0 l/m 1,9 km/h (1 Bft) NW 7,0 C 9,2 C 5,3 km/h (1 Bft)
02.04.2017 11:00 11,7 C 74 % 1017,5 hPa 0,0 l/m 3,2 km/h (1 Bft) SW 7,2 C 11,7 C 8,1 km/h (2 Bft)
02.04.2017 12:00 13,1 C 67 % 1017,5 hPa 0,0 l/m 4,7 km/h (1 Bft) NW 7,1 C 13,0 C 9,8 km/h (2 Bft)
02.04.2017 13:00 13,1 C 67 % 1017,4 hPa 0,0 l/m 5,0 km/h (1 Bft) W-NW 7,1 C 13,1 C 12,1 km/h (2 Bft)
02.04.2017 14:00 13,3 C 67 % 1017,5 hPa 0,0 l/m 4,2 km/h (1 Bft) SW 7,3 C 13,3 C 11,1 km/h (2 Bft)
02.04.2017 15:00 14,4 C 64 % 1017,3 hPa 0,0 l/m 3,4 km/h (1 Bft) NW 7,6 C 14,4 C 9,9 km/h (2 Bft)
02.04.2017 16:00 14,6 C 63 % 1017,6 hPa 0,0 l/m 3,9 km/h (1 Bft) W-NW 7,7 C 14,6 C 10,1 km/h (2 Bft)
02.04.2017 17:00 14,6 C 63 % 1017,9 hPa 0,0 l/m 4,0 km/h (1 Bft) W-NW 7,8 C 14,6 C 9,0 km/h (2 Bft)
02.04.2017 18:00 14,2 C 65 % 1018,3 hPa 0,0 l/m 2,2 km/h (1 Bft) W-NW 7,7 C 14,2 C 5,3 km/h (1 Bft)
02.04.2017 19:00 12,8 C 71 % 1018,9 hPa 0,0 l/m 1,7 km/h (1 Bft) NW 7,7 C 12,8 C 5,5 km/h (2 Bft)
02.04.2017 20:00 11,1 C 78 % 1019,9 hPa 0,0 l/m 1,2 km/h (1 Bft) S-SW 7,4 C 11,1 C 4,3 km/h (1 Bft)
02.04.2017 21:00 9,6 C 84 % 1020,8 hPa 0,0 l/m 0,3 km/h (0 Bft) S-SW 7,0 C 9,6 C 1,7 km/h (1 Bft)
02.04.2017 22:00 9,3 C 86 % 1021,3 hPa 0,0 l/m 0,1 km/h (0 Bft) S-SW 7,1 C 9,3 C 1,3 km/h (1 Bft)
02.04.2017 23:00 9,5 C 85 % 1021,7 hPa 0,0 l/m 0,2 km/h (0 Bft) S-SO 7,1 C 9,5 C 1,5 km/h (1 Bft)
Min-Datum _ 27.03.17 31.03.17 01.04.17 - 02.04.17 - 27.03.17 27.03.17 02.04.17
_ Min-Zeit 07:00 17:00 17:00 - 23:05 - 07:40 07:00 23:05
Minimum _ -3,2 C 24 % 1010,0 hPa - 0,0 km/h (0 Bft) - -4,1 C -3,2 C 0,0 km/h (0 Bft)
Max-Datum _ 31.03.17 31.03.17 30.03.17 02.04.17 31.03.17 - 31.03.17 31.03.17 31.03.17
_ Max-Zeit 15:20 08:00 02:10 05:15 15:55 - 10:15 15:15 17:00
Maximum _ 22,3 C 97 % 1027,8 hPa 0,5 l/m 9,7 km/h
O-NO (2 Bft)
- 9,0 C 22,2 C 22,5 km/h
O-NO (4 Bft)
Durchschnitt _ 9,7 C 71 % 1020,7 hPa #0,8 l/m 1,6 km/h (1 Bft) O-NO 3,7 C 9,7 C 4,1 km/h (1 Bft)